Time;durP1;ratioP1;P1;durP2;ratioP2;P2;SDS_P1;SDS_P2;PMS_P1;PMS_P2;Temp;Humidity;BMP_temperature;BMP_pressure;BME280_temperature;BME280_humidity;BME280_pressure;Samples;Min_cycle;Max_cycle;Signal;HPM_P1;HPM_P2
2023/12/26 00:00:58;;;;;;;9.60;4.20;;;;;;;7.94;100.00;99363.31;5082986;28;20457;-79
2023/12/26 00:03:23;;;;;;;11.97;4.80;;;;;;;8.12;100.00;99371.75;5069710;28;20072;-78
2023/12/26 00:05:49;;;;;;;6.70;3.50;;;;;;;8.12;100.00;99355.81;5065352;28;20370;-79
2023/12/26 00:08:14;;;;;;;10.77;4.83;;;;;;;8.13;100.00;99349.50;5050925;28;20028;-79
2023/12/26 00:10:40;;;;;;;8.60;3.90;;;;;;;8.03;100.00;99349.75;5063503;28;20063;-79
2023/12/26 00:13:05;;;;;;;10.10;5.40;;;;;;;8.18;100.00;99355.09;5078801;28;20780;-79
2023/12/26 00:15:31;;;;;;;13.77;4.53;;;;;;;8.08;100.00;99341.25;5069202;28;20429;-79
2023/12/26 00:17:56;;;;;;;8.38;4.05;;;;;;;8.20;100.00;99336.31;5087144;28;20126;-79
2023/12/26 00:20:21;;;;;;;9.30;4.63;;;;;;;8.13;100.00;99319.44;5074697;28;20077;-79
2023/12/26 00:22:47;;;;;;;13.37;5.23;;;;;;;8.20;100.00;99317.69;5071406;28;20043;-80
2023/12/26 00:25:12;;;;;;;11.93;4.78;;;;;;;8.28;100.00;99325.56;5071696;28;20330;-80
2023/12/26 00:27:39;;;;;;;13.47;4.53;;;;;;;8.15;100.00;99318.25;5056002;28;20195;-79
2023/12/26 00:30:08;;;;;;;13.02;4.07;;;;;;;8.14;100.00;99319.25;5059327;28;20395;-79
2023/12/26 00:32:34;;;;;;;9.13;4.15;;;;;;;8.25;100.00;99323.28;5086009;28;20074;-79
2023/12/26 00:35:00;;;;;;;10.57;4.43;;;;;;;8.21;100.00;99324.66;5069846;28;20059;-79
2023/12/26 00:37:25;;;;;;;12.10;4.13;;;;;;;8.18;100.00;99320.53;5078293;28;20043;-80
2023/12/26 00:39:50;;;;;;;11.97;4.77;;;;;;;8.20;100.00;99321.19;5057271;28;20076;-80
2023/12/26 00:42:16;;;;;;;8.60;3.70;;;;;;;8.25;100.00;99324.13;5080670;28;20154;-79
2023/12/26 00:44:41;;;;;;;8.18;3.42;;;;;;;8.25;100.00;99323.28;5070019;28;20131;-80
2023/12/26 00:47:07;;;;;;;12.17;3.97;;;;;;;8.23;100.00;99310.16;5069731;28;20106;-80
2023/12/26 00:49:32;;;;;;;12.43;4.70;;;;;;;8.24;100.00;99316.31;5085073;28;20032;-80
2023/12/26 00:51:57;;;;;;;8.03;3.87;;;;;;;8.14;100.00;99310.44;5068499;28;20373;-79
2023/12/26 00:54:23;;;;;;;11.90;4.63;;;;;;;8.16;100.00;99306.59;5067876;28;20204;-80
2023/12/26 00:56:48;;;;;;;13.20;4.57;;;;;;;8.20;100.00;99305.22;5068779;28;20302;-80
2023/12/26 00:59:14;;;;;;;8.10;3.60;;;;;;;8.23;100.00;99314.66;5085634;28;20086;-80
2023/12/26 01:01:40;;;;;;;9.30;3.23;;;;;;;8.15;100.00;99301.47;5073849;28;20045;-80
2023/12/26 01:04:05;;;;;;;9.45;3.45;;;;;;;8.16;100.00;99301.28;5081574;28;20032;-80
2023/12/26 01:06:30;;;;;;;11.05;3.85;;;;;;;8.07;100.00;99302.38;5083693;28;20028;-80
2023/12/26 01:08:56;;;;;;;10.87;3.63;;;;;;;8.18;100.00;99299.25;5055930;28;20567;-80
2023/12/26 01:11:22;;;;;;;7.72;2.95;;;;;;;8.23;100.00;99288.91;5086243;28;20278;-79
2023/12/26 01:13:47;;;;;;;11.77;3.13;;;;;;;8.12;100.00;99275.25;5086239;28;20044;-80
2023/12/26 01:16:13;;;;;;;9.35;3.55;;;;;;;8.24;100.00;99273.78;5069217;28;20780;-79
2023/12/26 01:18:38;;;;;;;9.53;2.90;;;;;;;8.29;100.00;99276.72;5067470;28;20491;-80
2023/12/26 01:21:05;;;;;;;7.27;3.00;;;;;;;8.29;100.00;99278.53;5069986;28;20275;-80
2023/12/26 01:23:31;;;;;;;8.00;2.85;;;;;;;8.30;100.00;99277.53;5055809;28;20031;-80
2023/12/26 01:25:56;;;;;;;4.43;2.38;;;;;;;8.23;100.00;99275.59;5075176;28;20032;-80
2023/12/26 01:28:21;;;;;;;9.77;3.50;;;;;;;8.21;100.00;99280.28;5054922;28;20044;-80
2023/12/26 01:30:47;;;;;;;9.87;3.13;;;;;;;8.19;100.00;99271.69;5056531;28;20301;-80
2023/12/26 01:33:12;;;;;;;7.67;3.63;;;;;;;8.28;100.00;99269.75;5062664;28;20050;-81
2023/12/26 01:35:38;;;;;;;12.38;3.75;;;;;;;8.19;100.00;99255.75;5068623;28;20106;-80
2023/12/26 01:38:03;;;;;;;8.23;2.87;;;;;;;8.17;100.00;99247.13;5069227;28;20070;-80
2023/12/26 01:40:29;;;;;;;6.50;2.50;;;;;;;8.20;100.00;99248.59;5068979;28;20035;-81
2023/12/26 01:42:54;;;;;;;5.27;2.37;;;;;;;8.12;100.00;99246.81;5068926;28;20036;-80
2023/12/26 01:45:19;;;;;;;5.83;2.30;;;;;;;8.11;100.00;99252.34;5061119;28;20047;-81
2023/12/26 01:47:51;;;;;;;6.03;2.23;;;;;;;8.20;100.00;99249.41;5069422;28;20278;-80
2023/12/26 01:50:17;;;;;;;4.50;2.00;;;;;;;8.15;100.00;99235.84;5069340;28;20647;-81
2023/12/26 01:52:43;;;;;;;7.35;2.20;;;;;;;8.23;100.00;99246.38;5069913;28;20028;-81
2023/12/26 01:55:11;;;;;;;7.50;2.00;;;;;;;8.22;100.00;99249.22;5069632;28;20126;-80
2023/12/26 01:57:39;;;;;;;7.28;2.22;;;;;;;8.16;100.00;99226.84;5077217;28;20032;-79
2023/12/26 02:00:06;;;;;;;5.82;2.15;;;;;;;8.15;100.00;99227.88;5068369;28;20028;-79
2023/12/26 02:02:38;;;;;;;5.43;3.05;;;;;;;8.03;100.00;99213.38;5083475;28;20072;-80
2023/12/26 02:05:04;;;;;;;4.97;1.92;;;;;;;8.09;100.00;99228.59;5051853;28;20037;-80
2023/12/26 02:07:30;;;;;;;8.07;3.05;;;;;;;8.04;100.00;99230.97;5055819;28;20119;-79
2023/12/26 02:09:55;;;;;;;7.27;2.23;;;;;;;8.06;100.00;99230.81;5064818;28;20115;-80
2023/12/26 02:12:21;;;;;;;5.53;2.23;;;;;;;8.12;100.00;99238.03;5055392;28;20279;-80
2023/12/26 02:14:47;;;;;;;3.20;2.45;;;;;;;8.07;100.00;99235.91;5069733;28;20363;-80
2023/12/26 02:17:19;;;;;;;11.93;2.42;;;;;;;8.09;100.00;99233.91;5071472;28;20028;-79
2023/12/26 02:19:48;;;;;;;5.15;2.20;;;;;;;7.98;100.00;99234.34;5052767;28;20055;-81
2023/12/26 02:22:14;;;;;;;10.10;3.53;;;;;;;8.01;100.00;99226.84;5067680;28;20036;-80
2023/12/26 02:24:42;;;;;;;7.70;2.47;;;;;;;8.11;100.00;99228.41;5063844;28;20039;-80
2023/12/26 02:27:29;;;;;;;8.52;2.42;;;;;;;8.12;100.00;99238.03;5055710;28;20408;-80
2023/12/26 02:29:57;;;;;;;7.78;1.98;;;;;;;8.08;100.00;99239.38;5072538;28;20495;-80
2023/12/26 02:32:25;;;;;;;4.97;2.97;;;;;;;8.11;100.00;99237.19;5063898;28;20024;-77
2023/12/26 02:34:55;;;;;;;6.32;2.17;;;;;;;8.15;100.00;99233.19;5065762;28;20119;-79
2023/12/26 02:37:24;;;;;;;5.63;2.30;;;;;;;8.12;100.00;99227.38;5076126;28;20032;-79
2023/12/26 02:39:50;;;;;;;3.88;2.13;;;;;;;8.13;100.00;99229.06;5088106;28;20020;-80
2023/12/26 02:42:18;;;;;;;6.82;2.83;;;;;;;8.11;100.00;99223.09;5070572;28;20035;-80
2023/12/26 02:44:43;;;;;;;2.65;1.80;;;;;;;8.18;100.00;99231.97;5063823;28;20081;-81
2023/12/26 02:47:09;;;;;;;7.45;1.88;;;;;;;8.16;100.00;99234.00;5071676;28;20020;-81
2023/12/26 02:49:35;;;;;;;4.22;2.13;;;;;;;8.18;100.00;99221.34;5071640;28;20535;-80
2023/12/26 02:52:00;;;;;;;2.95;1.90;;;;;;;8.18;100.00;99224.81;5064706;28;20032;-80
2023/12/26 02:54:26;;;;;;;3.80;1.80;;;;;;;8.19;100.00;99226.50;5088453;28;20032;-80
2023/12/26 02:56:51;;;;;;;4.90;2.50;;;;;;;8.14;100.00;99223.53;5070664;28;20529;-79
2023/12/26 02:59:16;;;;;;;3.00;1.67;;;;;;;8.25;100.00;99216.94;5068568;28;20850;-80
2023/12/26 03:01:45;;;;;;;4.45;2.03;;;;;;;8.10;100.00;99224.94;5063616;28;20134;-79
2023/12/26 03:04:11;;;;;;;2.90;1.90;;;;;;;8.20;100.00;99236.09;5068769;28;20032;-80
2023/12/26 03:06:36;;;;;;;2.88;1.75;;;;;;;8.14;100.00;99230.69;5068956;28;20034;-81
2023/12/26 03:09:02;;;;;;;2.60;1.60;;;;;;;8.08;100.00;99218.13;5070459;28;20078;-80
2023/12/26 03:11:28;;;;;;;4.35;2.05;;;;;;;8.23;100.00;99218.97;5071119;28;20267;-80
2023/12/26 03:13:54;;;;;;;4.18;1.80;;;;;;;8.25;100.00;99207.13;5061993;28;20036;-80
2023/12/26 03:16:21;;;;;;;;;;;;;;;8.16;100.00;99204.75;5088440;28;20032;-79
2023/12/26 03:18:46;;;;;;;5.70;1.90;;;;;;;8.20;100.00;99211.34;5071948;28;19915;-81
2023/12/26 03:21:12;;;;;;;2.83;1.65;;;;;;;8.09;100.00;99195.88;5071087;28;20032;-79
2023/12/26 03:23:37;;;;;;;3.63;1.50;;;;;;;8.12;100.00;99222.06;5070706;28;20126;-80
2023/12/26 03:26:09;;;;;;;2.88;1.63;;;;;;;8.03;100.00;99218.72;5085738;28;20274;-80
2023/12/26 03:28:34;;;;;;;4.65;1.65;;;;;;;8.06;100.00;99222.81;5067028;28;20044;-78
2023/12/26 03:31:04;;;;;;;3.63;1.90;;;;;;;8.10;100.00;99250.66;5053571;28;20036;-80
2023/12/26 03:33:30;;;;;;;4.93;1.58;;;;;;;8.01;100.00;99248.13;5069368;28;20278;-80
2023/12/26 03:35:57;;;;;;;5.30;1.67;;;;;;;8.07;100.00;99243.06;5070960;28;20792;-79
2023/12/26 03:38:22;;;;;;;3.17;1.67;;;;;;;8.04;100.00;99237.09;5070836;28;20038;-79
2023/12/26 03:40:48;;;;;;;5.20;1.55;;;;;;;8.11;100.00;99247.84;5070722;28;20278;-79
2023/12/26 03:43:16;;;;;;;5.47;1.80;;;;;;;8.04;100.00;99252.25;5069563;28;20039;-80
2023/12/26 03:45:42;;;;;;;5.93;1.60;;;;;;;8.06;100.00;99252.06;5049535;28;20032;-81
2023/12/26 03:48:08;;;;;;;4.32;1.10;;;;;;;7.97;100.00;99241.50;5078696;28;20123;-80
2023/12/26 03:50:33;;;;;;;4.55;1.40;;;;;;;8.02;100.00;99249.75;5071049;28;20036;-80
2023/12/26 03:52:59;;;;;;;8.53;2.50;;;;;;;7.98;100.00;99248.50;5052956;28;20067;-80
2023/12/26 03:55:24;;;;;;;12.18;2.00;;;;;;;8.03;100.00;99234.66;5076878;28;20036;-80
2023/12/26 03:57:49;;;;;;;10.82;2.17;;;;;;;8.01;100.00;99236.66;5070521;28;20028;-80
2023/12/26 04:00:15;;;;;;;9.32;2.13;;;;;;;7.99;100.00;99228.88;5069202;28;20042;-81
2023/12/26 04:02:47;;;;;;;9.38;2.35;;;;;;;8.01;100.00;99244.63;5054861;28;20391;-80
2023/12/26 04:05:14;;;;;;;18.15;3.78;;;;;;;8.06;100.00;99247.56;5087269;28;20032;-81
2023/12/26 04:07:40;;;;;;;14.32;3.92;;;;;;;7.91;100.00;99226.28;5070607;28;20107;-81
2023/12/26 04:10:06;;;;;;;12.68;2.22;;;;;;;7.88;100.00;99224.00;5070369;28;20031;-80
2023/12/26 04:12:33;;;;;;;11.15;2.20;;;;;;;7.95;100.00;99224.09;5061532;28;20151;-81
2023/12/26 04:14:58;;;;;;;14.85;2.63;;;;;;;7.93;100.00;99203.00;5069829;28;20073;-81
2023/12/26 04:17:24;;;;;;;13.73;3.90;;;;;;;7.80;100.00;99194.88;5061328;28;20037;-80
2023/12/26 04:19:49;;;;;;;14.45;2.50;;;;;;;7.95;100.00;99216.13;5070148;28;20031;-80
2023/12/26 04:22:15;;;;;;;24.52;3.47;;;;;;;7.89;100.00;99198.25;5069792;28;20483;-81
2023/12/26 04:24:41;;;;;;;12.02;3.83;;;;;;;7.92;100.00;99190.75;5069811;28;20039;-81
2023/12/26 04:27:06;;;;;;;14.07;3.30;;;;;;;8.01;100.00;99199.47;5068220;28;20028;-81
2023/12/26 04:29:32;;;;;;;24.60;3.97;;;;;;;7.84;100.00;99209.41;5074153;28;20406;-79
2023/12/26 04:31:58;;;;;;;19.50;3.60;;;;;;;7.88;100.00;99200.06;5065415;28;20119;-79
2023/12/26 04:34:24;;;;;;;20.52;4.28;;;;;;;7.87;100.00;99230.31;5068340;28;20024;-79
2023/12/26 04:36:49;;;;;;;17.08;3.53;;;;;;;7.88;100.00;99247.91;5051834;28;20029;-79
2023/12/26 04:39:15;;;;;;;17.50;3.27;;;;;;;7.71;100.00;99230.50;5051741;28;20030;-79
2023/12/26 04:41:40;;;;;;;10.88;2.80;;;;;;;7.72;100.00;99232.13;5062163;28;20032;-79
2023/12/26 04:44:06;;;;;;;21.80;4.47;;;;;;;7.73;100.00;99233.78;5063087;28;20040;-80
2023/12/26 04:46:32;;;;;;;21.33;5.05;;;;;;;7.73;100.00;99229.31;5057823;28;20293;-80
2023/12/26 04:48:57;;;;;;;23.33;5.43;;;;;;;7.65;100.00;99236.50;5080127;28;20039;-79
2023/12/26 04:51:23;;;;;;;15.88;3.50;;;;;;;7.72;100.00;99235.59;5069304;28;20085;-80
2023/12/26 04:53:49;;;;;;;17.88;3.75;;;;;;;7.65;100.00;99239.16;5068763;28;20038;-79
2023/12/26 04:56:19;;;;;;;28.80;4.35;;;;;;;7.73;100.00;99228.47;5077824;28;20032;-79
2023/12/26 04:58:49;;;;;;;12.88;3.95;;;;;;;7.50;100.00;99237.31;5054482;28;20021;-80
2023/12/26 05:01:19;;;;;;;20.55;2.90;;;;;;;7.37;100.00;99245.03;5061527;28;20028;-80
2023/12/26 05:03:45;;;;;;;13.35;4.13;;;;;;;7.47;100.00;99252.75;5053169;28;20504;-79
2023/12/26 05:06:11;;;;;;;23.05;3.83;;;;;;;7.46;100.00;99251.94;5085146;28;20058;-79
2023/12/26 05:08:38;;;;;;;;;;;;;;;7.60;100.00;99269.75;5058333;28;20488;-79
2023/12/26 05:11:06;;;;;;;21.90;2.85;;;;;;;7.56;100.00;99264.97;5065881;28;19916;-80
2023/12/26 05:13:32;;;;;;;19.08;4.68;;;;;;;7.46;100.00;99262.56;5064243;28;20273;-80
2023/12/26 05:16:03;;;;;;;12.43;2.65;;;;;;;7.50;100.00;99253.25;5058668;28;20032;-80
2023/12/26 05:18:29;;;;;;;16.88;3.70;;;;;;;7.51;100.00;99270.00;5061785;28;20037;-79
2023/12/26 05:20:56;;;;;;;26.13;4.07;;;;;;;7.58;100.00;99260.31;5069177;28;20012;-80
2023/12/26 05:23:21;;;;;;;24.08;5.28;;;;;;;7.53;100.00;99265.34;5068499;28;20071;-80
2023/12/26 05:25:47;;;;;;;23.00;4.55;;;;;;;7.46;100.00;99254.59;5069075;28;20028;-80
2023/12/26 05:28:12;;;;;;;22.97;4.40;;;;;;;7.46;100.00;99257.25;5068984;28;20023;-80
2023/12/26 05:30:38;;;;;;;23.02;4.55;;;;;;;7.57;100.00;99275.44;5085584;28;20032;-80
2023/12/26 05:33:04;;;;;;;22.45;5.28;;;;;;;7.58;100.00;99273.59;5066629;28;20131;-81
2023/12/26 05:35:29;;;;;;;26.08;6.00;;;;;;;7.58;100.00;99279.72;5066939;28;20028;-79
2023/12/26 05:37:55;;;;;;;23.50;4.32;;;;;;;7.51;100.00;99278.78;5056244;28;20027;-81
2023/12/26 05:40:20;;;;;;;21.87;4.40;;;;;;;7.48;100.00;99275.69;5048519;28;20032;-82
2023/12/26 05:42:47;;;;;;;22.42;4.72;;;;;;;7.48;100.00;99263.22;5077056;28;20028;-81
2023/12/26 05:45:12;;;;;;;25.85;4.03;;;;;;;7.52;100.00;99263.69;5068361;28;20066;-80
2023/12/26 05:47:38;;;;;;;17.08;3.45;;;;;;;7.51;100.00;99262.84;5068277;28;20118;-79
2023/12/26 05:50:04;;;;;;;27.03;4.60;;;;;;;7.40;100.00;99247.38;5067809;28;20024;-79
2023/12/26 05:52:30;;;;;;;28.05;5.38;;;;;;;7.47;100.00;99234.19;5068041;28;20281;-79
2023/12/26 05:54:55;;;;;;;34.95;4.88;;;;;;;7.47;100.00;99243.00;5067936;28;20016;-80
2023/12/26 05:57:21;;;;;;;35.60;4.38;;;;;;;7.42;100.00;99255.94;5068237;28;20489;-79
2023/12/26 05:59:46;;;;;;;18.70;5.00;;;;;;;7.43;100.00;99249.66;5073953;28;20384;-80
2023/12/26 06:02:12;;;;;;;30.63;5.63;;;;;;;7.31;100.00;99240.47;5049384;28;20374;-78
2023/12/26 06:04:37;;;;;;;20.40;3.03;;;;;;;7.35;100.00;99239.09;5066975;28;20120;-79
2023/12/26 06:07:03;;;;;;;30.07;4.33;;;;;;;7.45;100.00;99234.38;5073877;28;20318;-79
2023/12/26 06:09:29;;;;;;;16.27;3.78;;;;;;;7.24;100.00;99229.72;5066221;28;20291;-78
2023/12/26 06:11:55;;;;;;;28.20;3.65;;;;;;;7.34;100.00;99245.41;5070467;28;20061;-78
2023/12/26 06:14:22;;;;;;;27.13;4.90;;;;;;;7.34;100.00;99237.44;5076076;28;20032;-78
2023/12/26 06:16:48;;;;;;;24.15;4.55;;;;;;;7.37;100.00;99260.97;5060260;28;20785;-79
2023/12/26 06:19:13;;;;;;;24.27;5.07;;;;;;;7.39;100.00;99253.66;5077647;28;20020;-78
2023/12/26 06:21:39;;;;;;;30.17;5.47;;;;;;;7.37;100.00;99247.69;5058486;28;20063;-79
2023/12/26 06:24:06;;;;;;;22.02;4.10;;;;;;;7.30;100.00;99236.97;5068060;28;20692;-79
2023/12/26 06:26:31;;;;;;;32.38;5.40;;;;;;;7.39;100.00;99243.84;5067633;28;20020;-79
2023/12/26 06:28:57;;;;;;;25.47;5.47;;;;;;;7.42;100.00;99245.34;5068381;28;20457;-77
2023/12/26 06:31:22;;;;;;;24.70;4.43;;;;;;;7.48;100.00;99244.63;5067519;28;20626;-77
2023/12/26 06:33:47;;;;;;;26.00;4.23;;;;;;;7.31;100.00;99238.63;5065886;28;20021;-77
2023/12/26 06:36:13;;;;;;;26.05;5.53;;;;;;;7.41;100.00;99238.38;5049040;28;20039;-78
2023/12/26 06:38:38;;;;;;;31.80;3.90;;;;;;;7.28;100.00;99228.38;5066463;28;20401;-78
2023/12/26 06:41:04;;;;;;;29.37;4.93;;;;;;;7.36;100.00;99240.75;5046862;28;20266;-78
2023/12/26 06:43:30;;;;;;;17.35;4.15;;;;;;;7.36;100.00;99240.75;5061146;28;20374;-77
2023/12/26 06:45:57;;;;;;;18.30;4.30;;;;;;;7.31;100.00;99245.78;5059308;28;20107;-78
2023/12/26 06:48:23;;;;;;;23.33;5.25;;;;;;;7.36;100.00;99254.03;5062440;28;20494;-77
2023/12/26 06:50:49;;;;;;;20.93;4.20;;;;;;;7.33;100.00;99246.44;5065961;28;20060;-78
2023/12/26 06:53:14;;;;;;;25.27;4.78;;;;;;;7.39;100.00;99258.97;5062883;28;20286;-76
2023/12/26 06:55:40;;;;;;;24.05;5.00;;;;;;;7.39;100.00;99258.97;5076205;28;20070;-77
2023/12/26 06:58:06;;;;;;;33.80;4.82;;;;;;;7.41;100.00;99249.00;5085367;28;20020;-77
2023/12/26 07:00:31;;;;;;;19.15;4.93;;;;;;;7.34;100.00;99225.00;5068369;28;20047;-78
2023/12/26 07:02:57;;;;;;;24.70;4.68;;;;;;;7.39;100.00;99256.31;5087805;28;20070;-77
2023/12/26 07:05:23;;;;;;;38.25;7.07;;;;;;;7.41;100.00;99254.31;5064189;28;20028;-78
2023/12/26 07:07:48;;;;;;;26.23;3.85;;;;;;;7.31;100.00;99222.69;5074301;28;20028;-77
2023/12/26 07:10:14;;;;;;;36.50;6.10;;;;;;;7.34;100.00;99200.28;5081866;28;20502;-77
2023/12/26 07:12:39;;;;;;;19.38;3.25;;;;;;;7.37;100.00;99202.56;5074576;28;20029;-78
2023/12/26 07:15:06;;;;;;;23.98;4.32;;;;;;;7.36;100.00;99185.00;5064678;28;20494;-78
2023/12/26 07:17:32;;;;;;;20.08;2.90;;;;;;;7.41;100.00;99164.03;5073987;28;20059;-78
2023/12/26 07:19:57;;;;;;;20.92;2.70;;;;;;;7.26;100.00;99126.84;5069614;28;20057;-76
2023/12/26 07:22:23;;;;;;;21.13;3.20;;;;;;;7.33;100.00;99142.88;5079869;28;20021;-77
2023/12/26 07:24:48;;;;;;;16.60;4.53;;;;;;;7.33;100.00;99108.38;5076986;28;20472;-77
2023/12/26 07:27:14;;;;;;;24.85;4.95;;;;;;;7.35;100.00;99109.00;5068539;28;20274;-77
2023/12/26 07:29:39;;;;;;;17.37;4.07;;;;;;;7.46;100.00;99131.63;5067266;28;20033;-78
2023/12/26 07:32:05;;;;;;;20.02;3.15;;;;;;;7.37;100.00;99126.41;5067325;28;20028;-77
2023/12/26 07:34:30;;;;;;;22.60;3.40;;;;;;;7.35;100.00;99109.00;5069114;28;20187;-78
2023/12/26 07:36:56;;;;;;;17.50;3.70;;;;;;;7.28;100.00;99097.44;5084337;28;20027;-77
2023/12/26 07:39:21;;;;;;;22.03;3.87;;;;;;;7.36;100.00;99121.28;5083817;28;20028;-77
2023/12/26 07:41:46;;;;;;;19.45;3.45;;;;;;;7.36;100.00;99089.41;5087396;28;20042;-77
2023/12/26 07:44:13;;;;;;;23.20;3.05;;;;;;;7.40;100.00;99093.38;5087659;28;20032;-78
2023/12/26 07:46:39;;;;;;;24.57;5.00;;;;;;;7.44;100.00;99123.84;5050053;28;20021;-78
2023/12/26 07:49:04;;;;;;;21.70;4.28;;;;;;;7.41;100.00;99134.81;5067157;28;20633;-79
2023/12/26 07:51:30;;;;;;;26.08;3.15;;;;;;;7.38;100.00;99146.63;5067955;28;20100;-77
2023/12/26 07:53:55;;;;;;;22.33;2.93;;;;;;;7.34;100.00;99139.22;5052806;28;20032;-77
2023/12/26 07:56:21;;;;;;;18.77;3.33;;;;;;;7.38;100.00;99167.06;5085300;22;20476;-76
2023/12/26 07:58:46;;;;;;;22.30;3.35;;;;;;;7.27;100.00;99217.94;5046552;28;20929;-76
2023/12/26 08:01:13;;;;;;;15.65;2.58;;;;;;;7.36;100.00;99251.38;5041661;28;20037;-76
2023/12/26 08:03:38;;;;;;;24.67;4.75;;;;;;;7.25;100.00;99260.56;5068007;28;20056;-76
2023/12/26 08:06:03;;;;;;;18.20;4.47;;;;;;;7.33;100.00;99303.00;5029234;28;20071;-76
2023/12/26 08:08:29;;;;;;;22.60;3.35;;;;;;;7.18;100.00;99280.84;5030267;28;20095;-76
2023/12/26 08:10:54;;;;;;;15.43;2.60;;;;;;;7.17;100.00;99303.94;5039780;28;20032;-76
2023/12/26 08:13:20;;;;;;;22.00;3.37;;;;;;;7.22;100.00;99321.16;5039323;28;20284;-76
2023/12/26 08:15:45;;;;;;;19.02;4.28;;;;;;;7.21;100.00;99324.81;5046507;28;20103;-75
2023/12/26 08:18:10;;;;;;;15.27;2.70;;;;;;;7.19;100.00;99309.88;5032496;28;20677;-76
2023/12/26 08:20:37;;;;;;;13.27;2.83;;;;;;;7.29;100.00;99319.47;5030241;28;20041;-75
2023/12/26 08:23:02;;;;;;;18.17;2.42;;;;;;;7.26;100.00;99318.00;5014451;28;20037;-75
2023/12/26 08:25:28;;;;;;;13.40;3.17;;;;;;;7.26;100.00;99333.06;5060063;28;20081;-76
2023/12/26 08:27:54;;;;;;;19.33;4.43;;;;;;;7.34;100.00;99322.41;5039749;28;20034;-75
2023/12/26 08:30:20;;;;;;;14.40;2.83;;;;;;;7.34;100.00;99309.94;5036522;28;20616;-75
2023/12/26 08:32:45;;;;;;;11.73;2.38;;;;;;;7.36;100.00;99280.56;5028144;28;20029;-75
2023/12/26 08:35:11;;;;;;;12.60;2.35;;;;;;;7.42;100.00;99285.16;5044345;28;20029;-75
2023/12/26 08:37:36;;;;;;;14.75;3.13;;;;;;;7.35;100.00;99289.53;5046199;28;20037;-75
2023/12/26 08:40:03;;;;;;;26.97;4.53;;;;;;;7.37;100.00;99277.75;5043472;28;20033;-75
2023/12/26 08:42:28;;;;;;;;;;;;;;;7.38;100.00;99289.19;5039516;28;20037;-75
2023/12/26 08:44:53;;;;;;;24.88;4.05;;;;;;;7.50;100.00;99327.59;5041949;28;19909;-75
2023/12/26 08:47:19;;;;;;;15.70;3.38;;;;;;;7.54;100.00;99328.09;5043160;28;20553;-75
2023/12/26 08:49:44;;;;;;;27.07;4.90;;;;;;;7.54;100.00;99328.91;5029333;28;20040;-75
2023/12/26 08:52:10;;;;;;;33.50;3.87;;;;;;;7.46;100.00;99326.28;5040425;28;20059;-75
2023/12/26 08:54:35;;;;;;;29.63;3.38;;;;;;;7.37;100.00;99287.53;5044470;28;20043;-75
2023/12/26 08:57:00;;;;;;;24.03;4.67;;;;;;;7.57;100.00;99331.19;5034185;28;20110;-75
2023/12/26 08:59:26;;;;;;;15.73;3.40;;;;;;;7.45;100.00;99332.63;5037778;28;20135;-76
2023/12/26 09:01:52;;;;;;;23.02;3.33;;;;;;;7.50;100.00;99346.19;5035610;28;20287;-75
2023/12/26 09:04:17;;;;;;;23.07;4.73;;;;;;;7.56;100.00;99361.44;5029177;28;20047;-75
2023/12/26 09:06:43;;;;;;;28.65;3.58;;;;;;;7.77;100.00;99357.28;5038821;28;20083;-75
2023/12/26 09:09:08;;;;;;;15.53;3.67;;;;;;;7.45;100.00;99306.06;5032093;28;20052;-76
2023/12/26 09:11:34;;;;;;;21.65;4.15;;;;;;;7.46;100.00;99330.78;5031895;28;20029;-74
2023/12/26 09:13:59;;;;;;;21.67;3.73;;;;;;;7.46;100.00;99360.00;5009308;28;20488;-74
2023/12/26 09:16:25;;;;;;;14.60;2.67;;;;;;;7.35;100.00;99375.34;5037331;28;20079;-75
2023/12/26 09:18:50;;;;;;;22.45;3.85;;;;;;;7.65;100.00;99414.50;5041223;28;20287;-75
2023/12/26 09:21:16;;;;;;;27.87;3.23;;;;;;;7.50;100.00;99383.38;5025666;28;20494;-75
2023/12/26 09:23:41;;;;;;;24.73;3.90;;;;;;;7.56;100.00;99406.59;5039736;28;20049;-75
2023/12/26 09:26:07;;;;;;;15.68;3.55;;;;;;;7.50;100.00;99388.69;5033760;28;20034;-75
2023/12/26 09:28:32;;;;;;;21.73;4.65;;;;;;;7.44;100.00;99400.00;5021320;28;20120;-75
2023/12/26 09:30:58;;;;;;;18.42;3.65;;;;;;;8.57;100.00;99454.31;5040699;28;20040;-75
2023/12/26 09:33:25;;;;;;;16.83;3.35;;;;;;;9.16;100.00;99294.59;5034025;28;20044;-75
2023/12/26 09:35:50;;;;;;;16.25;2.90;;;;;;;9.83;100.00;99145.94;5020561;28;20087;-75
2023/12/26 09:38:16;;;;;;;12.82;2.30;;;;;;;9.01;100.00;99001.84;5037136;28;20056;-75
2023/12/26 09:40:41;;;;;;;16.58;3.10;;;;;;;8.54;100.00;98986.53;5045192;28;20784;-75
2023/12/26 09:43:25;;;;;;;21.60;3.15;;;;;;;8.31;100.00;99014.13;5049571;28;20075;-75
2023/12/26 09:46:10;;;;;;;17.40;3.35;;;;;;;8.34;100.00;99092.69;5038410;28;20083;-74
2023/12/26 09:48:54;;;;;;;15.87;2.50;;;;;;;8.47;100.00;99135.41;5026894;28;20052;-74
2023/12/26 09:51:23;;;;;;;17.38;2.78;;;;;;;8.85;100.00;99092.59;5038969;28;20649;-75
2023/12/26 09:53:59;;;;;;;20.05;2.90;;;;;;;9.40;100.00;99053.66;5040443;28;20036;-75
2023/12/26 09:56:25;;;;;;;;;;;;;;;9.45;100.00;98989.97;5045145;28;20051;-75
2023/12/26 09:58:53;;;;;;;18.40;3.35;;;;;;;9.24;100.00;98929.63;5037155;28;19967;-75
2023/12/26 10:01:20;;;;;;;25.55;4.22;;;;;;;9.01;100.00;98940.59;5032225;28;20476;-75
2023/12/26 10:03:46;;;;;;;19.38;3.67;;;;;;;8.73;100.00;98937.13;5028572;28;20037;-75
2023/12/26 10:06:13;;;;;;;25.53;3.90;;;;;;;9.54;100.00;99093.72;5028476;28;20029;-75
2023/12/26 10:08:40;;;;;;;12.88;3.05;;;;;;;10.17;100.00;98941.59;5025558;28;20282;-75
2023/12/26 10:11:06;;;;;;;19.02;3.47;;;;;;;10.47;100.00;98757.97;5037241;28;20072;-75
2023/12/26 10:13:53;;;;;;;23.67;3.08;;;;;;;10.56;100.00;98559.25;5042963;28;20029;-75
2023/12/26 10:16:19;;;;;;;16.50;2.63;;;;;;;11.05;100.00;98578.16;5030906;28;20033;-75
2023/12/26 10:18:46;;;;;;;15.32;3.25;;;;;;;10.62;100.00;98413.47;5038154;28;20044;-75
2023/12/26 10:21:12;;;;;;;20.60;3.47;;;;;;;9.96;100.00;98362.28;5036441;28;20906;-75
2023/12/26 10:23:38;;;;;;;23.95;5.22;;;;;;;9.34;100.00;98535.16;5030759;28;20381;-75
2023/12/26 10:26:04;;;;;;;15.85;3.38;;;;;;;8.99;100.00;98671.16;5034788;28;20034;-75
2023/12/26 10:28:36;;;;;;;15.18;3.00;;;;;;;8.85;100.00;98805.22;5031355;28;20033;-75
2023/12/26 10:31:17;;;;;;;25.00;5.20;;;;;;;8.66;100.00;98889.19;5017975;28;20403;-74
2023/12/26 10:33:43;;;;;;;21.35;4.15;;;;;;;8.57;100.00;98960.38;5008370;28;20041;-73
2023/12/26 10:36:12;;;;;;;40.75;6.95;;;;;;;8.62;100.00;99075.00;5034147;28;20017;-74
2023/12/26 10:38:39;;;;;;;23.20;4.10;;;;;;;8.59;100.00;99111.78;5019398;28;20076;-74
2023/12/26 10:41:13;;;;;;;18.63;3.88;;;;;;;8.45;100.00;99148.91;5034445;28;20057;-73
2023/12/26 10:43:40;;;;;;;22.92;4.05;;;;;;;8.29;100.00;99186.31;5030136;28;20041;-74
2023/12/26 10:46:07;;;;;;;20.30;5.30;;;;;;;8.35;100.00;99244.06;5034116;28;20072;-74
2023/12/26 10:48:34;;;;;;;55.45;7.80;;;;;;;8.33;100.00;99230.13;5028863;28;20033;-74
2023/12/26 10:51:00;;;;;;;;;;;;;;;8.36;100.00;99269.66;5015260;28;20025;-74
2023/12/26 10:53:38;;;;;;;28.45;6.10;;;;;;;8.32;100.00;99279.00;5044757;28;19909;-74
2023/12/26 10:56:05;;;;;;;24.30;6.03;;;;;;;8.37;100.00;99321.81;5020533;28;20033;-74
2023/12/26 10:58:32;;;;;;;31.10;5.20;;;;;;;8.32;100.00;99350.00;5020961;28;20029;-74
2023/12/26 13:53:32;;;;;;;4.13;0.50;;;;;;;6.21;100.00;99911.97;5035126;28;20040;-77
2023/12/26 13:55:58;;;;;;;2.73;0.50;;;;;;;6.00;100.00;99871.72;5024858;28;20033;-77
2023/12/26 13:58:23;;;;;;;1.33;0.32;;;;;;;6.15;100.00;99888.72;5033958;28;20044;-77
2023/12/26 14:00:49;;;;;;;1.17;0.40;;;;;;;6.41;100.00;99920.53;5032780;28;20033;-77
2023/12/26 14:03:14;;;;;;;0.80;0.40;;;;;;;6.55;100.00;99897.91;5016283;28;20045;-76
2023/12/26 14:05:39;;;;;;;0.77;0.30;;;;;;;6.69;100.00;99918.56;5029328;28;20034;-77
2023/12/26 14:08:05;;;;;;;0.90;0.40;;;;;;;6.67;100.00;99912.59;5008344;28;20276;-77
2023/12/26 14:10:30;;;;;;;2.97;0.50;;;;;;;6.63;100.00;99908.59;5010496;28;20038;-76
2023/12/26 14:12:55;;;;;;;3.33;0.30;;;;;;;6.45;100.00;99892.72;5028442;28;20373;-77
2023/12/26 14:15:21;;;;;;;0.90;0.33;;;;;;;6.51;100.00;99923.09;5036074;28;20055;-77
2023/12/26 14:20:34;;;;;;;5.65;0.55;;;;;;;6.41;100.00;99895.84;5016819;28;20161;-76